Katmai National Park, AK

2:36 PM AKDT on April 26, 2015 (GMT -0800)
King Salmon | | Change Station
CLOSE
Current Station
Airport
Location: King Salmon,
Elevation: 46 ft
Nearby Weather Stations

Elev 46 ft 58.68 °N, 156.66 °W | Updated 42 minutes ago

Partly Cloudy
Partly Cloudy
55 °F
Feels Like 55 °F
N
13
Wind Variable Wind from North
Gusts 26 mph

Today
High -- | Low -- °F
--% Chance of Precip.
Yesterday
High -- | Low -- °F
Precip. -- in
6:43 AM 10:06 PM
First Quarter, 59% visible
Pressure 29.62 in
Visibility 10.0 miles
Clouds Few 3500 ft
Few 20000 ft
Dew Point 33 °F
Humidity 43%
Rainfall 0.00 in
Snow Depth Not available.
UV 6 out of 12
Pollen Not available.
Air Quality Not available.
Flu Activity Sporadic
METAR PAKN 262154Z 35011G23KT 10SM FEW035 FEW200 13/01 A2962 RMK AO2 SLP030 T01280006

More Conditions Fewer Conditions

Pressure 29.62 in
Visibility 10.0 miles
Clouds Few 3500 ft
Few 20000 ft
Dew Point 33 °F
Humidity 43%
Rainfall 0.00 in
Snow Depth Not available.
UV 6 out of 12
Pollen Not available.
Air Quality Not available.
Flu Activity Sporadic
METAR PAKN 262154Z 35011G23KT 10SM FEW035 FEW200 13/01 A2962 RMK AO2 SLP030 T01280006

More Conditions Fewer Conditions

10-Day Weather Forecast

Almanac

Astronomy

Apr. 26, 2015 Rise Set
Actual Time
Civil Twilight
Nautical Twilight
Astronomical Twilight
Moon
Length of Visible Light
Length of Day
Tomorrow will be .
, % of the Moon is Illuminated

Today's Extremes

State Highs State Lows

Community

WunderPhotos

Upload Photos

1,817,149 photos uploaded!

WunderBlogs® & News

Nearby

Air Quality

  Air Quality AQ Index Pollutant
Not available.

Snow Depth

Station Depth Elevation

Earthquake Activity

City Distance Mag. Time & Date
Minimum magnitude displayed is 2.5.

Coastal Water Temperatures

Place Temperature

Stations

Nearby Weather Stations

Station Location Temp. Windchill Dew Point Humidity Wind Precip. Elev Updated Type